Time;durP1;ratioP1;P1;durP2;ratioP2;P2;SDS_P1;SDS_P2;PMS_P1;PMS_P2;Temp;Humidity;BMP_temperature;BMP_pressure;BME280_temperature;BME280_humidity;BME280_pressure;Samples;Min_cycle;Max_cycle;Signal;HPM_P1;HPM_P2
2020/12/08 00:00:47;;;;;;;64.53;38.78;;;;;;;-0.43;100.00;98387.22;2071214;28;20232;-73
2020/12/08 00:01:47;;;;;;;65.25;38.70;;;;;;;-0.46;100.00;98388.47;2078700;28;20273;-73
2020/12/08 00:02:49;;;;;;;66.37;38.33;;;;;;;-0.49;100.00;98382.94;2079474;28;20269;-73
2020/12/08 00:03:50;;;;;;;61.00;37.47;;;;;;;-0.41;100.00;98390.41;2079360;28;20575;-73
2020/12/08 00:04:51;;;;;;;70.13;39.30;;;;;;;-0.43;100.00;98382.78;2070777;28;20302;-73
2020/12/08 00:05:52;;;;;;;67.28;39.78;;;;;;;-0.42;100.00;98391.44;2070840;28;20318;-75
2020/12/08 00:06:53;;;;;;;64.43;39.40;;;;;;;-0.49;100.00;98385.56;2070964;28;20228;-73
2020/12/08 00:07:54;;;;;;;65.75;38.58;;;;;;;-0.52;100.00;98386.03;2079246;28;20255;-73
2020/12/08 00:08:55;;;;;;;60.87;37.90;;;;;;;-0.46;100.00;98392.94;2080006;28;20235;-73
2020/12/08 00:09:56;;;;;;;66.13;39.85;;;;;;;-0.47;100.00;98393.97;2080053;28;20716;-73
2020/12/08 00:10:57;;;;;;;62.67;37.97;;;;;;;-0.45;100.00;98381.41;2080811;28;20588;-72
2020/12/08 00:11:58;;;;;;;62.42;37.97;;;;;;;-0.39;100.00;98378.63;2081388;28;20732;-73
2020/12/08 00:13:01;;;;;;;69.53;39.28;;;;;;;-0.32;100.00;98391.56;2081542;28;20219;-73
2020/12/08 00:14:01;;;;;;;64.75;40.05;;;;;;;-0.33;100.00;98392.59;2081698;28;20228;-73
2020/12/08 00:15:04;;;;;;;65.57;41.10;;;;;;;-0.32;100.00;98388.94;2080802;28;20362;-73
2020/12/08 00:16:04;;;;;;;65.00;38.22;;;;;;;-0.31;100.00;98387.91;2080846;28;20310;-74
2020/12/08 00:17:06;;;;;;;69.97;39.70;;;;;;;-0.35;100.00;98385.00;2080740;28;20223;-73
2020/12/08 00:18:06;;;;;;;65.40;38.28;;;;;;;-0.27;100.00;98378.50;2072045;28;20817;-77
2020/12/08 00:19:10;;;;;;;62.47;39.40;;;;;;;-0.18;100.00;98389.38;2080994;28;20572;-74
2020/12/08 00:20:11;;;;;;;70.07;41.63;;;;;;;-0.21;100.00;98385.41;2079769;28;20280;-73
2020/12/08 00:21:13;;;;;;;64.10;39.50;;;;;;;-0.18;100.00;98378.88;2072548;28;20705;-74
2020/12/08 00:22:14;;;;;;;62.72;38.83;;;;;;;-0.15;100.00;98387.06;2080372;28;20752;-73
2020/12/08 00:23:15;;;;;;;59.83;39.47;;;;;;;-0.11;100.00;98387.38;2072545;28;20586;-73
2020/12/08 00:24:16;;;;;;;64.70;40.30;;;;;;;-0.23;100.00;98382.25;2080122;28;20310;-74
2020/12/08 00:25:17;;;;;;;68.00;41.13;;;;;;;-0.20;100.00;98397.47;2080606;28;20219;-73
2020/12/08 00:26:18;;;;;;;69.05;40.92;;;;;;;-0.16;100.00;98395.97;2080932;28;20310;-73
2020/12/08 00:27:21;;;;;;;59.37;40.13;;;;;;;-0.24;100.00;98383.28;2080407;28;20238;-73
2020/12/08 00:28:22;;;;;;;67.68;40.65;;;;;;;-0.20;100.00;98397.47;2072385;28;20598;-74
2020/12/08 00:29:24;;;;;;;65.20;40.08;;;;;;;-0.22;100.00;98381.22;2080242;28;20277;-73
2020/12/08 00:30:24;;;;;;;58.67;37.72;;;;;;;-0.17;100.00;98388.38;2081536;28;20227;-73
2020/12/08 00:31:26;;;;;;;69.57;40.20;;;;;;;-0.12;100.00;98391.03;2081347;28;20223;-73
2020/12/08 00:32:26;;;;;;;67.28;38.80;;;;;;;-0.12;100.00;98397.06;2080567;28;20248;-73
2020/12/08 00:33:28;;;;;;;62.17;39.33;;;;;;;-0.23;100.00;98397.97;2080737;28;20223;-73
2020/12/08 00:34:29;;;;;;;63.42;38.90;;;;;;;-0.22;100.00;98393.53;2080529;28;20223;-73
2020/12/08 00:35:30;;;;;;;69.00;39.70;;;;;;;-0.33;100.00;98395.22;2080680;28;20223;-73
2020/12/08 00:36:31;;;;;;;63.80;39.90;;;;;;;-0.20;100.00;98394.88;2081371;28;20223;-73
2020/12/08 00:37:32;;;;;;;56.83;35.50;;;;;;;-0.26;100.00;98397.66;2080360;28;20274;-74
2020/12/08 00:38:33;;;;;;;65.90;38.42;;;;;;;-0.24;100.00;98408.72;2079810;28;20450;-73
2020/12/08 00:39:34;;;;;;;63.07;37.47;;;;;;;-0.23;100.00;98400.59;2072404;28;20224;-73
2020/12/08 00:40:35;;;;;;;64.18;39.10;;;;;;;-0.24;100.00;98399.03;2072485;28;20224;-73
2020/12/08 00:41:36;;;;;;;55.87;37.67;;;;;;;-0.25;100.00;98396.66;2080354;28;20223;-73
2020/12/08 00:42:39;;;;;;;61.92;38.05;;;;;;;-0.32;100.00;98391.56;2071440;28;20247;-73
2020/12/08 00:43:41;;;;;;;66.03;38.72;;;;;;;-0.32;100.00;98397.59;2080610;28;20231;-72
2020/12/08 00:44:43;;;;;;;66.28;37.95;;;;;;;-0.37;100.00;98396.72;2080480;28;20669;-73
2020/12/08 00:45:46;;;;;;;66.03;37.63;;;;;;;-0.39;100.00;98390.94;2072330;28;20251;-73
2020/12/08 00:46:48;;;;;;;65.53;39.50;;;;;;;-0.32;100.00;98402.84;2080695;28;20792;-72
2020/12/08 00:47:49;;;;;;;57.38;36.40;;;;;;;-0.35;100.00;98392.84;2080419;28;20294;-72
2020/12/08 00:48:50;;;;;;;65.65;39.35;;;;;;;-0.29;100.00;98410.22;2072430;28;20236;-73
2020/12/08 00:49:52;;;;;;;62.67;37.27;;;;;;;-0.37;100.00;98407.22;2080791;28;20223;-72
2020/12/08 00:50:52;;;;;;;69.45;39.15;;;;;;;-0.51;100.00;98398.91;2081023;28;20706;-73
2020/12/08 00:51:57;;;;;;;72.05;39.22;;;;;;;-0.49;100.00;98402.06;2080540;28;20238;-73
2020/12/08 00:52:59;;;;;;;66.60;38.40;;;;;;;-0.46;100.00;98398.97;2072941;28;20315;-73
2020/12/08 00:54:01;;;;;;;62.67;37.23;;;;;;;-0.45;100.00;98403.16;2072290;28;20227;-73
2020/12/08 00:55:02;;;;;;;61.97;39.13;;;;;;;-0.47;100.00;98391.34;2080501;28;20647;-72
2020/12/08 00:56:08;;;;;;;67.97;38.92;;;;;;;-0.43;100.00;98408.97;2072239;28;20303;-72
2020/12/08 00:57:09;;;;;;;68.85;38.22;;;;;;;-0.44;100.00;98406.56;2080211;28;20234;-73
2020/12/08 00:58:12;;;;;;;71.03;39.03;;;;;;;-0.43;100.00;98410.81;2080610;28;20227;-73
2020/12/08 00:59:15;;;;;;;62.38;37.20;;;;;;;-0.45;100.00;98407.63;2072381;28;20231;-73
2020/12/08 01:00:21;;;;;;;67.10;37.75;;;;;;;-0.36;100.00;98419.28;2072976;28;20226;-73
2020/12/08 01:01:22;;;;;;;64.53;38.22;;;;;;;-0.50;100.00;98410.19;2071798;28;20220;-74
2020/12/08 01:02:23;;;;;;;64.90;36.60;;;;;;;-0.49;100.00;98422.25;2072163;28;20227;-73
2020/12/08 01:03:26;;;;;;;63.47;37.80;;;;;;;-0.44;100.00;98411.81;2080521;28;20307;-72
2020/12/08 01:04:27;;;;;;;61.90;37.27;;;;;;;-0.45;100.00;98410.22;2080490;28;20238;-72
2020/12/08 01:05:28;;;;;;;61.13;37.08;;;;;;;-0.47;100.00;98405.25;2080442;28;20454;-72
2020/12/08 01:06:34;;;;;;;64.50;37.33;;;;;;;-0.43;100.00;98406.38;2080480;28;20303;-72
2020/12/08 01:07:35;;;;;;;60.17;36.72;;;;;;;-0.38;100.00;98411.66;2080306;28;20227;-72
2020/12/08 01:08:36;;;;;;;61.93;35.93;;;;;;;-0.43;100.00;98402.94;2072037;28;20251;-73
2020/12/08 01:09:37;;;;;;;62.75;36.92;;;;;;;-0.44;100.00;98403.97;2071786;28;20224;-74
2020/12/08 01:10:38;;;;;;;56.50;35.90;;;;;;;-0.34;100.00;98406.75;2080326;28;20697;-73
2020/12/08 01:11:42;;;;;;;60.13;36.90;;;;;;;-0.32;100.00;98409.91;2080319;28;20226;-73
2020/12/08 01:12:44;;;;;;;65.97;37.67;;;;;;;-0.45;100.00;98391.91;2072714;28;20220;-73
2020/12/08 01:13:47;;;;;;;61.20;37.97;;;;;;;-0.35;100.00;98413.00;2072083;28;20570;-72
2020/12/08 01:14:55;;;;;;;65.15;36.83;;;;;;;-0.37;100.00;98404.59;2072403;28;20228;-73
2020/12/08 01:15:56;;;;;;;63.28;37.60;;;;;;;-0.33;100.00;98398.63;2080264;28;20231;-73
2020/12/08 01:16:58;;;;;;;62.13;36.53;;;;;;;-0.38;100.00;98393.31;2072111;28;20231;-73
2020/12/08 01:17:59;;;;;;;67.50;39.45;;;;;;;-0.45;100.00;98389.28;2072018;28;20223;-72
2020/12/08 01:19:03;;;;;;;65.55;38.13;;;;;;;-0.36;100.00;98400.94;2080403;28;20223;-72
2020/12/08 01:20:04;;;;;;;64.68;36.45;;;;;;;-0.31;100.00;98406.25;2072238;28;20269;-72
2020/12/08 01:21:07;;;;;;;62.40;37.65;;;;;;;-0.28;100.00;98409.19;2071160;28;20288;-74
2020/12/08 01:22:09;;;;;;;64.38;38.67;;;;;;;-0.28;100.00;98403.13;2071957;28;20266;-72
2020/12/08 01:23:12;;;;;;;64.43;38.43;;;;;;;-0.37;100.00;98401.97;2080224;28;20314;-73
2020/12/08 01:24:12;;;;;;;64.47;37.40;;;;;;;-0.33;100.00;98401.25;2081027;28;20442;-73
2020/12/08 01:25:15;;;;;;;62.38;38.85;;;;;;;-0.31;100.00;98396.56;2080311;28;20249;-72
2020/12/08 01:26:21;;;;;;;62.03;36.42;;;;;;;-0.40;100.00;98390.16;2072321;28;20223;-73
2020/12/08 01:27:23;;;;;;;62.28;35.50;;;;;;;-0.44;100.00;98398.72;2072092;28;20240;-73
2020/12/08 01:28:24;;;;;;;60.17;36.72;;;;;;;-0.45;100.00;98399.75;2072040;28;20228;-73
2020/12/08 01:29:26;;;;;;;66.63;38.00;;;;;;;-0.43;100.00;98402.94;2072089;28;20704;-73
2020/12/08 01:30:28;;;;;;;59.38;36.80;;;;;;;-0.46;100.00;98395.56;2080158;28;20289;-72
2020/12/08 01:31:33;;;;;;;61.80;37.65;;;;;;;-0.39;100.00;98389.13;2080923;28;20227;-73
2020/12/08 01:32:38;;;;;;;68.13;36.65;;;;;;;-0.36;100.00;98396.47;2079686;28;20797;-73
2020/12/08 01:33:40;;;;;;;63.00;37.97;;;;;;;-0.32;100.00;98391.56;2071996;28;20270;-73
2020/12/08 01:34:40;;;;;;;63.63;37.13;;;;;;;-0.34;100.00;98388.41;2072082;28;20262;-72
2020/12/08 01:35:44;;;;;;;60.38;36.80;;;;;;;-0.25;100.00;98402.69;2080100;28;20239;-72
2020/12/08 01:36:45;;;;;;;60.38;36.03;;;;;;;-0.25;100.00;98396.66;2080074;28;20219;-73
2020/12/08 01:37:47;;;;;;;61.03;35.95;;;;;;;-0.35;100.00;98387.59;2080282;28;20223;-72
2020/12/08 01:38:48;;;;;;;55.75;34.47;;;;;;;-0.35;100.00;98387.59;2080013;28;20257;-73
2020/12/08 01:39:50;;;;;;;59.78;35.10;;;;;;;-0.43;100.00;98379.38;2072071;28;20235;-72
2020/12/08 01:40:52;;;;;;;62.58;36.20;;;;;;;-0.32;100.00;98391.56;2072141;28;20224;-72
2020/12/08 01:41:55;;;;;;;58.22;35.55;;;;;;;-0.28;100.00;98392.66;2071698;28;20247;-73
2020/12/08 01:42:57;;;;;;;63.72;37.20;;;;;;;-0.28;100.00;98388.22;2071588;28;20228;-72
2020/12/08 01:43:58;;;;;;;59.25;34.45;;;;;;;-0.31;100.00;98387.91;2071997;28;20224;-73
2020/12/08 01:45:01;;;;;;;63.47;36.03;;;;;;;-0.26;100.00;98385.38;2071859;28;20227;-73
2020/12/08 01:46:06;;;;;;;55.65;33.83;;;;;;;-0.19;100.00;98385.97;2071892;28;20224;-72
2020/12/08 01:47:06;;;;;;;53.88;33.53;;;;;;;-0.22;100.00;98383.84;2080127;28;20575;-75
2020/12/08 01:48:08;;;;;;;55.67;33.05;;;;;;;-0.26;100.00;98387.16;2079976;28;20231;-73
2020/12/08 01:49:09;;;;;;;59.17;35.25;;;;;;;-0.24;100.00;98383.28;2071924;28;20303;-72
2020/12/08 01:50:10;;;;;;;56.87;33.07;;;;;;;-0.22;100.00;98386.47;2080172;28;20219;-72
2020/12/08 01:51:12;;;;;;;61.28;33.75;;;;;;;-0.28;100.00;98382.97;2080840;28;20243;-73
2020/12/08 01:52:15;;;;;;;57.38;33.63;;;;;;;-0.22;100.00;98386.47;2079892;28;20726;-72
2020/12/08 01:53:16;;;;;;;54.88;33.40;;;;;;;-0.30;100.00;98376.38;2080144;28;20223;-72
2020/12/08 01:54:21;;;;;;;53.58;32.33;;;;;;;-0.20;100.00;98386.22;2080830;28;20273;-72
2020/12/08 01:55:22;;;;;;;54.25;33.95;;;;;;;-0.24;100.00;98393.78;2080499;28;20223;-74
2020/12/08 01:56:25;;;;;;;50.60;34.35;;;;;;;-0.34;100.00;98391.81;2080100;28;20230;-72
2020/12/08 01:57:32;;;;;;;50.60;33.75;;;;;;;-0.45;100.00;98381.41;2079276;28;20231;-72
2020/12/08 01:58:38;;;;;;;54.03;33.78;;;;;;;-0.46;100.00;98390.31;2079497;28;20652;-73
2020/12/08 01:59:39;;;;;;;54.30;32.38;;;;;;;-0.47;100.00;98373.81;2079832;28;20227;-73
2020/12/08 02:00:50;;;;;;;56.53;32.95;;;;;;;-0.46;100.00;98385.06;2073148;28;20224;-73
2020/12/08 02:01:53;;;;;;;52.55;32.80;;;;;;;-0.37;100.00;98389.66;2079412;28;20631;-73
2020/12/08 02:02:55;;;;;;;52.60;32.40;;;;;;;-0.30;100.00;98392.13;2071823;28;20314;-73
2020/12/08 02:04:07;;;;;;;59.78;33.55;;;;;;;-0.36;100.00;98391.25;2072967;28;20224;-75
2020/12/08 02:05:09;;;;;;;52.03;31.98;;;;;;;-0.33;100.00;98387.38;2079781;28;20231;-73
2020/12/08 02:06:10;;;;;;;58.22;34.20;;;;;;;-0.42;100.00;98388.81;2071824;28;20227;-73
2020/12/08 02:07:11;;;;;;;54.17;33.47;;;;;;;-0.48;100.00;98385.31;2071628;28;20215;-73
2020/12/08 02:08:12;;;;;;;58.70;33.53;;;;;;;-0.43;100.00;98395.88;2079707;28;20465;-72
2020/12/08 02:09:16;;;;;;;51.25;33.03;;;;;;;-0.48;100.00;98393.19;2071959;28;20566;-73
2020/12/08 02:10:17;;;;;;;60.35;35.13;;;;;;;-0.40;100.00;98390.16;2071942;28;20220;-72
2020/12/08 02:11:19;;;;;;;59.83;35.00;;;;;;;-0.52;100.00;98376.38;2071365;28;20239;-72
2020/12/08 02:12:20;;;;;;;61.55;34.72;;;;;;;-0.57;100.00;98386.75;2079925;28;20246;-72
2020/12/08 02:13:23;;;;;;;58.65;33.78;;;;;;;-0.45;100.00;98395.31;2079421;28;20219;-76
2020/12/08 02:14:26;;;;;;;60.85;36.00;;;;;;;-0.50;100.00;98395.25;2079742;28;20267;-72
2020/12/08 02:15:29;;;;;;;52.40;33.27;;;;;;;-0.50;100.00;98395.25;2071765;28;20246;-73
2020/12/08 02:16:31;;;;;;;57.80;34.15;;;;;;;-0.59;100.00;98379.16;2079771;28;20716;-72
2020/12/08 02:17:32;;;;;;;56.58;33.45;;;;;;;-0.53;100.00;98390.47;2079870;28;20223;-72
2020/12/08 02:18:34;;;;;;;58.83;34.03;;;;;;;-0.50;100.00;98399.69;2079427;28;20219;-72
2020/12/08 02:19:35;;;;;;;56.45;34.97;;;;;;;-0.56;100.00;98390.97;2071819;28;20216;-72
2020/12/08 02:20:43;;;;;;;53.08;32.78;;;;;;;-0.60;100.00;98390.66;2071705;28;20220;-72
2020/12/08 02:21:45;;;;;;;54.63;33.08;;;;;;;-0.66;100.00;98391.59;2072372;28;20231;-72
2020/12/08 02:22:53;;;;;;;54.25;33.45;;;;;;;-0.64;100.00;98389.53;2071973;28;20252;-72
2020/12/08 02:23:54;;;;;;;53.33;33.72;;;;;;;-0.72;100.00;98379.47;2071458;28;20729;-72
2020/12/08 02:25:04;;;;;;;52.70;31.50;;;;;;;-0.51;100.00;98387.63;2072049;28;20234;-72
2020/12/08 02:26:05;;;;;;;52.45;34.45;;;;;;;-0.52;100.00;98381.59;2079776;28;20289;-72
2020/12/08 02:27:09;;;;;;;56.78;34.28;;;;;;;-0.66;100.00;98378.50;2078922;28;20234;-72
2020/12/08 02:28:10;;;;;;;53.50;34.63;;;;;;;-0.67;100.00;98379.56;2071230;28;20694;-73
2020/12/08 02:29:11;;;;;;;57.10;35.30;;;;;;;-0.77;100.00;98378.63;2079685;28;20602;-72
2020/12/08 02:30:16;;;;;;;54.72;32.88;;;;;;;-0.67;100.00;98386.63;2079780;28;20215;-72
2020/12/08 02:31:17;;;;;;;53.33;33.20;;;;;;;-0.53;100.00;98394.91;2079643;28;20223;-73
2020/12/08 02:32:18;;;;;;;55.45;33.10;;;;;;;-0.57;100.00;98395.41;2071555;28;20454;-73
2020/12/08 02:33:23;;;;;;;52.30;32.88;;;;;;;-0.51;100.00;98392.88;2070954;28;20790;-72
2020/12/08 02:34:24;;;;;;;50.03;32.15;;;;;;;-0.45;100.00;98407.63;2071591;28;20224;-72
2020/12/08 02:35:25;;;;;;;54.37;32.13;;;;;;;-0.51;100.00;98405.97;2079752;28;20250;-72
2020/12/08 02:36:27;;;;;;;47.05;30.55;;;;;;;-0.58;100.00;98414.00;2079782;28;20223;-72
2020/12/08 02:37:29;;;;;;;51.00;32.45;;;;;;;-0.61;100.00;98410.03;2079639;28;20310;-72
2020/12/08 02:38:30;;;;;;;53.47;32.30;;;;;;;-0.63;100.00;98409.47;2071578;28;20573;-73
2020/12/08 02:39:31;;;;;;;56.57;31.97;;;;;;;-0.70;100.00;98400.97;2079838;28;20243;-72
2020/12/08 02:40:33;;;;;;;50.13;33.20;;;;;;;-0.63;100.00;98416.53;2079587;28;20288;-72
2020/12/08 02:41:34;;;;;;;53.83;32.97;;;;;;;-0.68;100.00;98404.16;2071362;28;20224;-72
2020/12/08 02:42:36;;;;;;;51.38;32.70;;;;;;;-0.72;100.00;98399.63;2079643;28;20765;-72
2020/12/08 02:43:38;;;;;;;50.22;31.27;;;;;;;-0.65;100.00;98408.91;2071210;28;20609;-74
2020/12/08 02:44:39;;;;;;;52.60;33.63;;;;;;;-0.60;100.00;98409.00;2071521;28;20232;-72
2020/12/08 02:45:40;;;;;;;52.77;31.73;;;;;;;-0.61;100.00;98409.22;2079241;28;20230;-73
2020/12/08 02:46:42;;;;;;;51.60;32.30;;;;;;;-0.55;100.00;98402.22;2079732;28;20219;-72
2020/12/08 02:47:46;;;;;;;53.75;31.52;;;;;;;-0.53;100.00;98405.41;2079598;28;20748;-72
2020/12/08 02:48:48;;;;;;;52.88;31.27;;;;;;;-0.52;100.00;98401.75;2079689;28;20223;-73
2020/12/08 02:49:50;;;;;;;52.42;31.70;;;;;;;-0.52;100.00;98401.75;2071698;28;20299;-72
2020/12/08 02:50:51;;;;;;;52.50;32.08;;;;;;;-0.54;100.00;98401.19;2071666;28;20227;-72
2020/12/08 02:51:57;;;;;;;53.28;31.88;;;;;;;-0.51;100.00;98398.13;2071447;28;20244;-72
2020/12/08 02:53:00;;;;;;;49.88;30.95;;;;;;;-0.51;100.00;98404.16;2071926;28;20231;-73
2020/12/08 02:54:02;;;;;;;52.17;30.92;;;;;;;-0.53;100.00;98384.44;2079585;28;20251;-73
2020/12/08 02:55:03;;;;;;;52.58;32.30;;;;;;;-0.42;100.00;98400.09;2071541;28;20216;-73
2020/12/08 02:56:10;;;;;;;53.55;32.65;;;;;;;-0.49;100.00;98388.97;2071584;28;20311;-73
2020/12/08 02:57:11;;;;;;;50.58;31.50;;;;;;;-0.45;100.00;98403.16;2079498;28;20230;-73
2020/12/08 02:58:15;;;;;;;50.08;31.45;;;;;;;-0.48;100.00;98402.88;2079394;28;20220;-73
2020/12/08 02:59:16;;;;;;;54.17;33.38;;;;;;;-0.53;100.00;98387.06;2071548;28;20234;-73
2020/12/08 03:00:17;;;;;;;48.83;30.97;;;;;;;-0.54;100.00;98377.63;2071345;28;20307;-73
2020/12/08 03:01:18;;;;;;;50.72;29.85;;;;;;;-0.45;100.00;98402.38;2071579;28;20228;-73
2020/12/08 03:02:20;;;;;;;49.60;32.60;;;;;;;-0.42;100.00;98407.94;2079050;28;20215;-72
2020/12/08 03:03:24;;;;;;;49.17;30.67;;;;;;;-0.55;100.00;98407.47;2071354;28;20235;-73
2020/12/08 03:04:26;;;;;;;56.10;32.27;;;;;;;-0.61;100.00;98404.78;2071450;28;20227;-72
2020/12/08 03:05:28;;;;;;;57.40;34.67;;;;;;;-0.61;100.00;98411.84;2079450;28;20485;-72
2020/12/08 03:06:31;;;;;;;58.83;34.10;;;;;;;-0.63;100.00;98417.31;2071789;28;20220;-73
2020/12/08 03:07:35;;;;;;;54.17;32.53;;;;;;;-0.76;100.00;98396.69;2071536;28;20231;-72
2020/12/08 03:08:39;;;;;;;52.28;33.13;;;;;;;-0.75;100.00;98416.63;2071135;28;20227;-73
2020/12/08 03:09:40;;;;;;;49.90;32.40;;;;;;;-0.83;100.00;98398.69;2071438;28;20228;-73
2020/12/08 03:10:41;;;;;;;55.63;31.93;;;;;;;-0.77;100.00;98410.81;2071096;28;20216;-73
2020/12/08 03:11:42;;;;;;;55.05;32.65;;;;;;;-0.81;100.00;98409.69;2071401;28;20666;-73
2020/12/08 03:12:51;;;;;;;49.03;33.33;;;;;;;-0.82;100.00;98405.50;2072429;28;20274;-72
2020/12/08 03:13:52;;;;;;;52.17;32.03;;;;;;;-0.78;100.00;98411.03;2070954;28;20228;-73
2020/12/08 03:14:54;;;;;;;56.05;33.05;;;;;;;-0.79;100.00;98405.00;2071413;28;20235;-72
2020/12/08 03:16:06;;;;;;;47.53;30.60;;;;;;;-0.77;100.00;98412.66;2072952;28;20229;-73
2020/12/08 03:17:08;;;;;;;53.03;33.43;;;;;;;-0.87;100.00;98397.56;2070916;28;20747;-74
2020/12/08 03:18:08;;;;;;;49.55;32.13;;;;;;;-0.76;100.00;98415.03;2079462;28;20227;-72
2020/12/08 03:19:10;;;;;;;49.73;33.93;;;;;;;-0.79;100.00;98412.88;2080375;28;20246;-72
2020/12/08 03:20:11;;;;;;;49.63;32.38;;;;;;;-0.76;100.00;98415.03;2079595;28;20219;-73
2020/12/08 03:21:18;;;;;;;51.25;31.15;;;;;;;-0.77;100.00;98416.06;2072130;28;20306;-73
2020/12/08 03:22:19;;;;;;;50.28;32.40;;;;;;;-0.77;100.00;98415.28;2071378;28;20220;-72
2020/12/08 03:23:26;;;;;;;52.45;31.20;;;;;;;-0.75;100.00;98397.50;2071495;28;20228;-72
2020/12/08 03:24:26;;;;;;;54.22;32.78;;;;;;;-0.72;100.00;98397.78;2079385;28;21329;-72
2020/12/08 03:25:28;;;;;;;52.53;33.43;;;;;;;-0.74;100.00;98410.34;2079264;28;20589;-73
2020/12/08 03:26:29;;;;;;;57.30;33.85;;;;;;;-0.73;100.00;98411.94;2071243;28;20219;-73
2020/12/08 03:27:31;;;;;;;51.30;31.60;;;;;;;-0.69;100.00;98415.66;2071339;28;20339;-73
2020/12/08 03:28:34;;;;;;;50.38;31.98;;;;;;;-0.75;100.00;98403.53;2071847;28;20216;-73
2020/12/08 03:29:36;;;;;;;50.87;34.03;;;;;;;-0.73;100.00;98401.44;2071197;28;20219;-73
2020/12/08 03:30:39;;;;;;;55.20;33.88;;;;;;;-0.70;100.00;98406.19;2079026;28;20277;-73
2020/12/08 03:31:42;;;;;;;49.00;33.38;;;;;;;-0.64;100.00;98404.47;2071420;28;20232;-75
2020/12/08 03:32:43;;;;;;;49.25;32.85;;;;;;;-0.65;100.00;98411.53;2079352;28;20219;-73
2020/12/08 03:33:49;;;;;;;52.10;34.03;;;;;;;-0.66;100.00;98409.94;2071711;28;20240;-73
2020/12/08 03:34:50;;;;;;;54.40;34.15;;;;;;;-0.72;100.00;98408.28;2071566;28;20559;-73
2020/12/08 03:35:53;;;;;;;55.33;36.30;;;;;;;-0.76;100.00;98407.19;2071124;28;20232;-77
2020/12/08 03:36:54;;;;;;;52.15;37.10;;;;;;;-0.74;100.00;98397.25;2071437;28;20334;-73
2020/12/08 03:37:55;;;;;;;51.93;36.43;;;;;;;-0.77;100.00;98405.59;2078896;28;20281;-73
2020/12/08 03:38:58;;;;;;;54.05;36.97;;;;;;;-0.81;100.00;98403.66;2071527;28;20277;-73
2020/12/08 03:40:04;;;;;;;52.40;39.17;;;;;;;-0.85;100.00;98395.50;2071911;28;20251;-73
2020/12/08 03:41:06;;;;;;;55.97;38.88;;;;;;;-0.83;100.00;98398.69;2071520;28;20586;-73
2020/12/08 03:42:10;;;;;;;53.22;37.70;;;;;;;-0.83;100.00;98390.81;2079025;28;20223;-74
2020/12/08 03:43:14;;;;;;;54.30;38.55;;;;;;;-0.83;100.00;98401.28;2071869;28;20228;-73
2020/12/08 03:44:16;;;;;;;56.80;38.65;;;;;;;-0.81;100.00;98399.22;2071235;28;20311;-74
2020/12/08 03:45:16;;;;;;;61.75;40.55;;;;;;;-0.83;100.00;98406.53;2072756;28;20306;-73
2020/12/08 03:46:27;;;;;;;62.47;42.17;;;;;;;-0.88;100.00;98393.34;2080597;28;20250;-73
2020/12/08 03:47:31;;;;;;;59.00;40.72;;;;;;;-0.85;100.00;98403.38;2081036;28;20235;-73
2020/12/08 03:48:32;;;;;;;58.53;41.20;;;;;;;-0.86;100.00;98393.94;2081080;28;20227;-73
2020/12/08 03:49:33;;;;;;;58.70;42.40;;;;;;;-0.95;100.00;98384.88;2073088;28;20350;-73
2020/12/08 03:50:37;;;;;;;60.13;41.75;;;;;;;-0.91;100.00;98389.38;2081117;28;20220;-73
2020/12/08 03:51:40;;;;;;;58.38;43.03;;;;;;;-0.91;100.00;98399.06;2072702;28;20329;-74
2020/12/08 03:52:48;;;;;;;59.63;43.00;;;;;;;-0.93;100.00;98390.66;2073638;28;20303;-73
2020/12/08 03:53:49;;;;;;;63.67;41.97;;;;;;;-0.95;100.00;98398.75;2072465;28;20224;-74
2020/12/08 03:54:54;;;;;;;54.15;38.95;;;;;;;-0.99;100.00;98391.59;2072748;28;20334;-75
2020/12/08 03:55:57;;;;;;;57.90;41.22;;;;;;;-0.93;100.00;98391.47;2072763;28;20239;-73
2020/12/08 03:56:59;;;;;;;56.85;39.03;;;;;;;-0.90;100.00;98400.66;2072981;28;20220;-74
2020/12/08 03:58:02;;;;;;;61.28;39.10;;;;;;;-0.95;100.00;98388.28;2080765;28;20306;-74
2020/12/08 03:59:04;;;;;;;56.83;39.23;;;;;;;-0.90;100.00;98398.81;2080444;28;20230;-74
2020/12/08 04:00:07;;;;;;;55.75;38.53;;;;;;;-0.92;100.00;98392.25;2072715;28;20256;-74
2020/12/08 04:01:15;;;;;;;52.90;38.22;;;;;;;-0.90;100.00;98398.03;2080634;28;20677;-74
2020/12/08 04:02:17;;;;;;;57.83;39.90;;;;;;;-0.92;100.00;98402.72;2080757;28;20627;-73
2020/12/08 04:03:20;;;;;;;56.20;38.28;;;;;;;-0.99;100.00;98402.06;2072928;28;20307;-73
2020/12/08 04:04:25;;;;;;;54.30;37.47;;;;;;;-1.02;100.00;98384.25;2072569;28;20228;-73
2020/12/08 04:05:26;;;;;;;54.78;37.20;;;;;;;-0.95;100.00;98403.22;2072800;28;20320;-73
2020/12/08 04:06:28;;;;;;;56.53;38.58;;;;;;;-1.02;100.00;98390.25;2080901;28;20251;-73
2020/12/08 04:07:30;;;;;;;56.15;36.88;;;;;;;-1.01;100.00;98401.53;2080546;28;20227;-73
2020/12/08 04:08:32;;;;;;;49.72;36.28;;;;;;;-1.11;100.00;98396.13;2072546;28;20797;-73
2020/12/08 04:09:33;;;;;;;54.58;37.47;;;;;;;-1.02;100.00;98415.66;2072774;28;20220;-73
2020/12/08 04:10:36;;;;;;;52.60;37.13;;;;;;;-1.04;100.00;98410.66;2080874;28;20224;-73
2020/12/08 04:11:38;;;;;;;54.33;37.00;;;;;;;-1.09;100.00;98410.56;2080526;28;20228;-74
2020/12/08 04:12:39;;;;;;;50.88;38.25;;;;;;;-1.06;100.00;98411.91;2080830;28;20579;-73
2020/12/08 04:13:42;;;;;;;56.22;39.20;;;;;;;-0.98;100.00;98419.38;2072946;28;20228;-73
2020/12/08 04:14:44;;;;;;;59.30;38.10;;;;;;;-1.08;100.00;98408.72;2080795;28;20303;-73
2020/12/08 04:15:45;;;;;;;51.13;37.40;;;;;;;-1.02;100.00;98426.91;2072688;28;20293;-74
2020/12/08 04:16:47;;;;;;;53.20;38.15;;;;;;;-1.04;100.00;98428.97;2080763;28;20298;-73
2020/12/08 04:17:50;;;;;;;54.97;37.63;;;;;;;-1.07;100.00;98436.50;2072930;28;20232;-74
2020/12/08 04:18:52;;;;;;;55.13;35.90;;;;;;;-1.01;100.00;98430.31;2072209;28;20228;-73
2020/12/08 04:19:52;;;;;;;57.22;36.45;;;;;;;-0.97;100.00;98432.22;2072240;28;20232;-75
2020/12/08 04:20:55;;;;;;;55.03;36.38;;;;;;;-1.02;100.00;98433.97;2080684;28;20235;-74
2020/12/08 04:22:00;;;;;;;50.70;34.65;;;;;;;-1.01;100.00;98425.88;2080635;28;20584;-73
2020/12/08 04:23:14;;;;;;;53.17;35.55;;;;;;;-0.98;100.00;98429.84;2074202;28;20643;-74
2020/12/08 04:24:15;;;;;;;46.35;33.70;;;;;;;-1.00;100.00;98434.53;2072728;28;20717;-73
2020/12/08 04:25:16;;;;;;;51.90;33.47;;;;;;;-1.05;100.00;98429.97;2072566;28;20579;-73
2020/12/08 04:26:18;;;;;;;50.15;34.20;;;;;;;-1.12;100.00;98418.91;2072539;28;20474;-73
2020/12/08 04:27:22;;;;;;;54.08;33.65;;;;;;;-1.04;100.00;98433.41;2072399;28;20220;-77
2020/12/08 04:28:29;;;;;;;47.83;33.10;;;;;;;-1.08;100.00;98435.69;2072836;28;20625;-73
2020/12/08 04:29:31;;;;;;;62.08;35.40;;;;;;;-1.14;100.00;98439.25;2072634;28;20630;-73
2020/12/08 04:30:33;;;;;;;51.33;34.40;;;;;;;-1.11;100.00;98446.66;2072704;28;20259;-73
2020/12/08 04:31:34;;;;;;;54.35;33.85;;;;;;;-1.01;100.00;98438.97;2080833;28;20226;-73
2020/12/08 04:32:35;;;;;;;56.70;34.60;;;;;;;-1.09;100.00;98425.47;2080553;28;20302;-73
2020/12/08 04:33:36;;;;;;;46.70;33.90;;;;;;;-1.12;100.00;98425.97;2080560;28;20220;-74
2020/12/08 04:34:37;;;;;;;50.25;33.88;;;;;;;-1.11;100.00;98430.94;2081079;28;20605;-74
2020/12/08 04:35:38;;;;;;;48.57;32.67;;;;;;;-1.14;100.00;98410.47;2081444;28;20227;-73
2020/12/08 04:36:40;;;;;;;51.47;34.10;;;;;;;-1.12;100.00;98407.63;2080436;28;20311;-73
2020/12/08 04:37:40;;;;;;;50.95;32.75;;;;;;;-1.10;100.00;98419.44;2080577;28;20735;-73
2020/12/08 04:38:42;;;;;;;44.50;31.80;;;;;;;-1.06;100.00;98415.31;2080587;28;28758;-74
2020/12/08 04:39:43;;;;;;;49.42;32.42;;;;;;;-1.14;100.00;98421.72;2080893;28;20298;-73
2020/12/08 04:40:48;;;;;;;45.77;31.03;;;;;;;-1.14;100.00;98420.94;2080725;28;20224;-73
2020/12/08 04:41:52;;;;;;;53.35;31.38;;;;;;;-1.22;100.00;98414.25;2080717;28;20232;-73
2020/12/08 04:42:54;;;;;;;48.45;32.67;;;;;;;-1.08;100.00;98414.75;2079860;28;20227;-74
2020/12/08 04:43:55;;;;;;;52.00;31.25;;;;;;;-1.01;100.00;98418.03;2080559;28;20223;-73